Time;durP1;ratioP1;P1;durP2;ratioP2;P2;SDS_P1;SDS_P2;PMS_P1;PMS_P2;Temp;Humidity;BMP_temperature;BMP_pressure;BME280_temperature;BME280_humidity;BME280_pressure;Samples;Min_cycle;Max_cycle;Signal;HPM_P1;HPM_P2
2024/01/24 00:01:01;;;;;;;14.13;2.72;;;11.00;99.90;;;;;;5049627;28;20535;-73
2024/01/24 00:03:27;;;;;;;21.63;3.15;;;10.90;99.90;;;;;;5062943;28;20502;-72
2024/01/24 00:05:53;;;;;;;17.10;2.15;;;11.00;99.90;;;;;;5045685;28;20497;-73
2024/01/24 00:08:18;;;;;;;14.45;3.35;;;10.90;99.90;;;;;;5065363;28;20950;-73
2024/01/24 00:10:44;;;;;;;9.43;2.50;;;11.00;99.90;;;;;;5052649;28;20040;-72
2024/01/24 00:13:18;;;;;;;22.15;2.63;;;;;;;;;;5060418;28;20103;-72
2024/01/24 00:16:08;;;;;;;26.15;3.50;;;;;;;;;;5051926;28;20462;-73
2024/01/24 00:18:36;;;;;;;12.18;1.95;;;11.10;99.90;;;;;;5057348;28;20038;-73
2024/01/24 00:21:02;;;;;;;23.75;2.50;;;11.10;99.90;;;;;;5053990;28;20098;-73
2024/01/24 00:23:27;;;;;;;20.33;3.55;;;11.10;99.90;;;;;;5064754;28;20033;-72
2024/01/24 00:25:53;;;;;;;8.00;2.35;;;11.10;99.90;;;;;;5048494;28;20107;-72
2024/01/24 00:28:21;;;;;;;25.52;3.10;;;11.00;99.90;;;;;;5069183;28;20032;-73
2024/01/24 00:30:47;;;;;;;18.55;3.28;;;11.10;99.90;;;;;;5052737;28;20029;-73
2024/01/24 00:33:15;;;;;;;9.32;2.20;;;11.00;99.90;;;;;;5060294;28;20040;-72
2024/01/24 00:35:41;;;;;;;19.08;2.78;;;11.00;99.90;;;;;;5053412;28;20532;-72
2024/01/24 00:38:06;;;;;;;35.08;2.80;;;11.10;99.90;;;;;;5064173;28;20429;-73
2024/01/24 00:40:32;;;;;;;19.23;2.28;;;11.10;99.90;;;;;;5067148;28;20051;-73
2024/01/24 00:42:58;;;;;;;30.10;2.13;;;11.10;99.90;;;;;;5053221;28;20399;-73
2024/01/24 00:45:23;;;;;;;16.98;2.58;;;11.00;99.90;;;;;;5062699;28;20039;-73
2024/01/24 00:47:52;;;;;;;17.08;2.17;;;11.00;99.90;;;;;;5049759;28;20048;-71
2024/01/24 00:50:18;;;;;;;30.57;3.47;;;11.00;99.90;;;;;;5064142;28;20806;-72
2024/01/24 00:52:43;;;;;;;14.63;3.35;;;11.10;99.90;;;;;;5043390;28;20308;-72
2024/01/24 00:55:12;;;;;;;8.10;2.10;;;;;;;;;;5061710;28;20163;-72
2024/01/24 00:57:38;;;;;;;14.95;2.88;;;11.20;99.90;;;;;;5051526;28;20118;-73
2024/01/24 01:00:06;;;;;;;22.42;3.63;;;11.10;99.90;;;;;;5062064;28;20029;-73
2024/01/24 01:02:32;;;;;;;24.55;3.67;;;11.20;99.90;;;;;;5051345;28;20168;-73
2024/01/24 01:04:57;;;;;;;22.65;4.82;;;11.00;99.90;;;;;;5064964;28;20499;-73
2024/01/24 01:07:23;;;;;;;34.08;3.53;;;11.10;99.90;;;;;;5053815;28;20028;-72
2024/01/24 01:09:49;;;;;;;25.30;4.00;;;;;;;;;;5070277;28;20116;-73
2024/01/24 01:12:15;;;;;;;21.65;3.30;;;11.30;99.90;;;;;;5048902;28;20041;-73
2024/01/24 01:14:40;;;;;;;51.40;5.50;;;11.30;99.90;;;;;;5065542;28;20054;-73
2024/01/24 01:17:06;;;;;;;40.63;3.75;;;11.20;99.90;;;;;;5051193;28;20039;-72
2024/01/24 01:19:32;;;;;;;35.17;5.38;;;11.20;99.90;;;;;;5057069;28;20055;-72
2024/01/24 01:22:00;;;;;;;21.15;2.80;;;;;;;;;;5057437;28;20093;-72
2024/01/24 01:24:26;;;;;;;20.88;3.40;;;11.20;99.90;;;;;;5051074;28;20169;-73
2024/01/24 01:26:51;;;;;;;11.23;3.63;;;11.20;99.90;;;;;;5056723;28;20027;-73
2024/01/24 01:29:17;;;;;;;14.73;2.70;;;11.20;99.90;;;;;;5053569;28;20123;-72
2024/01/24 01:31:42;;;;;;;24.25;2.20;;;11.20;99.90;;;;;;5064146;28;20032;-72
2024/01/24 01:34:08;;;;;;;12.20;4.30;;;11.20;99.90;;;;;;5046377;28;20032;-73
2024/01/24 01:36:34;;;;;;;40.65;3.83;;;11.10;99.90;;;;;;5062321;28;20063;-73
2024/01/24 01:38:59;;;;;;;23.42;2.63;;;11.10;99.90;;;;;;5048720;28;20043;-72
2024/01/24 01:41:25;;;;;;;21.25;3.45;;;11.10;99.90;;;;;;5067557;28;20028;-72
2024/01/24 01:43:51;;;;;;;26.52;3.53;;;11.00;99.90;;;;;;5050518;28;20032;-72
2024/01/24 01:46:18;;;;;;;22.02;3.38;;;10.90;99.90;;;;;;5059590;28;20167;-72
2024/01/24 01:48:44;;;;;;;23.20;2.63;;;10.80;99.90;;;;;;5050764;28;20021;-72
2024/01/24 01:51:13;;;;;;;19.50;3.00;;;11.50;99.90;;;;;;5066977;28;20028;-73
2024/01/24 01:53:39;;;;;;;14.40;2.30;;;10.70;99.90;;;;;;5046715;28;20529;-73
2024/01/24 01:56:09;;;;;;;22.77;3.20;;;10.70;99.90;;;;;;5062223;28;20056;-72
2024/01/24 01:58:36;;;;;;;18.63;2.78;;;10.70;99.90;;;;;;5048983;28;20428;-74
2024/01/24 02:01:03;;;;;;;13.02;2.83;;;10.70;99.90;;;;;;5060973;28;20133;-72
2024/01/24 02:03:29;;;;;;;21.15;3.80;;;10.70;99.90;;;;;;5051354;28;20040;-73
2024/01/24 02:05:55;;;;;;;20.48;3.72;;;10.60;99.90;;;;;;5062414;28;20085;-71
2024/01/24 02:08:20;;;;;;;27.15;3.38;;;10.50;99.90;;;;;;5062356;28;20521;-71
2024/01/24 02:10:46;;;;;;;19.17;2.45;;;10.50;99.90;;;;;;5049356;28;20036;-72
2024/01/24 02:13:12;;;;;;;18.67;4.40;;;10.50;99.90;;;;;;5055000;28;20043;-72
2024/01/24 02:15:37;;;;;;;24.52;3.88;;;10.50;99.90;;;;;;5046785;28;20035;-71
2024/01/24 02:18:03;;;;;;;28.52;3.83;;;10.60;99.90;;;;;;5062137;28;20047;-73
2024/01/24 02:20:31;;;;;;;22.27;4.82;;;10.50;99.90;;;;;;5046506;28;20020;-73
2024/01/24 02:22:57;;;;;;;22.45;2.67;;;10.40;99.90;;;;;;5064844;28;20075;-71
2024/01/24 02:25:22;;;;;;;27.83;4.47;;;10.40;99.90;;;;;;5045558;28;20111;-73
2024/01/24 02:27:48;;;;;;;23.67;3.42;;;10.40;99.90;;;;;;5056284;28;20184;-73
2024/01/24 02:30:14;;;;;;;24.05;3.55;;;10.40;99.90;;;;;;5054457;28;20625;-73
2024/01/24 02:32:40;;;;;;;11.75;2.78;;;10.30;99.90;;;;;;5058940;28;20328;-72
2024/01/24 02:35:06;;;;;;;20.10;3.33;;;10.30;99.90;;;;;;5050021;28;20145;-72
2024/01/24 02:37:35;;;;;;;28.50;3.55;;;10.20;99.90;;;;;;5068647;28;20642;-74
2024/01/24 02:40:00;;;;;;;24.93;2.73;;;10.10;99.90;;;;;;5043300;28;20067;-71
2024/01/24 02:42:26;;;;;;;22.40;4.95;;;10.20;99.90;;;;;;5062680;28;21286;-72
2024/01/24 02:44:53;;;;;;;24.52;4.53;;;10.10;99.90;;;;;;5052665;28;20450;-71
2024/01/24 02:47:21;;;;;;;16.52;4.45;;;10.10;99.90;;;;;;5057542;28;20052;-71
2024/01/24 02:49:48;;;;;;;37.60;3.40;;;10.10;99.90;;;;;;5065227;28;20053;-71
2024/01/24 02:52:13;;;;;;;11.27;2.03;;;10.10;99.90;;;;;;5051561;28;20028;-73
2024/01/24 02:54:41;;;;;;;26.60;4.15;;;10.20;99.90;;;;;;5058092;28;20094;-73
2024/01/24 02:57:07;;;;;;;13.57;2.45;;;10.20;99.90;;;;;;5043933;28;20119;-75
2024/01/24 02:59:32;;;;;;;18.17;3.38;;;10.20;99.90;;;;;;5058753;28;20035;-74
2024/01/24 03:01:58;;;;;;;47.17;5.07;;;10.20;99.90;;;;;;5049552;28;20028;-71
2024/01/24 03:04:24;;;;;;;19.42;2.78;;;10.20;99.90;;;;;;5064929;28;20082;-72
2024/01/24 03:06:49;;;;;;;27.02;4.82;;;10.20;99.90;;;;;;5041816;28;20476;-71
2024/01/24 03:09:15;;;;;;;28.45;2.65;;;10.20;99.90;;;;;;5059813;28;20740;-72
2024/01/24 03:11:41;;;;;;;21.90;3.53;;;10.10;99.90;;;;;;5049600;28;20032;-72
2024/01/24 03:14:07;;;;;;;24.05;2.92;;;10.10;99.90;;;;;;5060357;28;20036;-73
2024/01/24 03:16:34;;;;;;;19.77;2.95;;;10.10;99.90;;;;;;5050191;28;20043;-73
2024/01/24 03:18:59;;;;;;;12.98;2.80;;;10.10;99.90;;;;;;5056191;28;20440;-72
2024/01/24 03:21:25;;;;;;;18.55;2.10;;;10.10;99.90;;;;;;5047283;28;20119;-72
2024/01/24 03:23:51;;;;;;;17.85;3.15;;;10.10;99.90;;;;;;5062985;28;20507;-73
2024/01/24 03:26:16;;;;;;;15.65;2.78;;;10.10;99.90;;;;;;5044802;28;20391;-72
2024/01/24 03:28:42;;;;;;;22.50;2.80;;;10.10;99.90;;;;;;5059393;28;20041;-73
2024/01/24 03:31:09;;;;;;;11.25;2.55;;;10.10;99.90;;;;;;5062993;28;20017;-73
2024/01/24 03:33:36;;;;;;;17.30;2.70;;;10.10;99.90;;;;;;5044301;28;20117;-73
2024/01/24 03:36:02;;;;;;;23.23;3.22;;;10.00;99.90;;;;;;5061245;28;20052;-72
2024/01/24 03:38:28;;;;;;;25.17;3.67;;;9.90;99.90;;;;;;5045479;28;20032;-72
2024/01/24 03:40:53;;;;;;;32.30;5.18;;;9.90;99.90;;;;;;5057478;28;20047;-72
2024/01/24 03:43:19;;;;;;;18.67;3.35;;;9.80;99.90;;;;;;5047724;28;20032;-73
2024/01/24 03:45:46;;;;;;;22.13;3.85;;;9.80;99.90;;;;;;5058423;28;20074;-74
2024/01/24 03:48:12;;;;;;;17.15;3.60;;;;;;;;;;5044689;28;20079;-73
2024/01/24 03:50:38;;;;;;;28.17;4.90;;;10.00;99.90;;;;;;5064884;28;20028;-73
2024/01/24 03:53:04;;;;;;;26.65;4.85;;;9.90;99.90;;;;;;5044529;28;20085;-72
2024/01/24 03:55:30;;;;;;;44.78;5.53;;;9.90;99.90;;;;;;5058889;28;20032;-73
2024/01/24 03:57:56;;;;;;;11.80;3.90;;;9.90;99.90;;;;;;5051116;28;20787;-72
2024/01/24 04:00:24;;;;;;;16.95;2.83;;;9.90;99.90;;;;;;5056209;28;20032;-72
2024/01/24 04:02:50;;;;;;;19.23;1.83;;;9.80;99.90;;;;;;5047030;28;20510;-73
2024/01/24 04:05:16;;;;;;;17.00;3.53;;;9.80;99.90;;;;;;5061087;28;20039;-73
2024/01/24 04:07:42;;;;;;;24.13;4.20;;;9.80;99.90;;;;;;5046984;28;20625;-72
2024/01/24 04:10:08;;;;;;;20.00;3.17;;;;;;;;;;5066346;28;20032;-72
2024/01/24 04:12:34;;;;;;;27.63;3.28;;;;;;;;;;5063840;28;20388;-73
2024/01/24 04:15:00;;;;;;;21.52;3.72;;;10.20;99.90;;;;;;5056663;28;20496;-72
2024/01/24 04:17:25;;;;;;;19.98;2.58;;;9.80;99.90;;;;;;5066323;28;20032;-71
2024/01/24 04:19:51;;;;;;;21.45;3.50;;;9.80;99.90;;;;;;5047337;28;20047;-71
2024/01/24 04:22:17;;;;;;;20.55;3.47;;;9.80;99.90;;;;;;5064817;28;20032;-72
2024/01/24 04:24:42;;;;;;;16.92;2.78;;;9.90;99.90;;;;;;5053500;28;20463;-73
2024/01/24 04:27:08;;;;;;;14.75;3.45;;;9.80;99.90;;;;;;5060098;28;20032;-72
2024/01/24 04:29:34;;;;;;;27.15;3.50;;;9.80;99.90;;;;;;5055403;28;20035;-72
2024/01/24 04:32:00;;;;;;;20.13;3.80;;;9.80;99.90;;;;;;5066409;28;20505;-71
2024/01/24 04:34:25;;;;;;;15.25;3.15;;;9.80;99.90;;;;;;5049891;28;20029;-73
2024/01/24 04:36:54;;;;;;;21.52;3.83;;;9.80;99.90;;;;;;5065606;28;20030;-71
2024/01/24 04:39:20;;;;;;;14.02;2.60;;;9.70;99.90;;;;;;5051547;28;20032;-73
2024/01/24 04:41:46;;;;;;;32.38;3.00;;;9.70;99.90;;;;;;5065105;28;20029;-73
2024/01/24 04:44:11;;;;;;;25.23;3.30;;;9.70;99.90;;;;;;5055519;28;20582;-72
2024/01/24 04:46:38;;;;;;;27.83;3.22;;;9.70;99.90;;;;;;5063491;28;20070;-72
2024/01/24 04:49:03;;;;;;;16.98;3.58;;;9.80;99.90;;;;;;5056245;28;20384;-72
2024/01/24 04:51:29;;;;;;;22.05;3.92;;;9.70;99.90;;;;;;5071730;28;20024;-72
2024/01/24 04:53:55;;;;;;;12.07;2.35;;;9.70;99.90;;;;;;5063063;28;20036;-73
2024/01/24 04:56:20;;;;;;;10.07;2.28;;;9.70;99.90;;;;;;5056842;28;20304;-72
2024/01/24 04:58:46;;;;;;;20.70;1.88;;;9.70;99.90;;;;;;5065134;28;20648;-72
2024/01/24 05:01:11;;;;;;;30.38;2.83;;;9.70;99.90;;;;;;5045165;28;20545;-73
2024/01/24 05:03:37;;;;;;;31.55;4.18;;;9.70;99.90;;;;;;5050690;28;20024;-73
2024/01/24 05:06:03;;;;;;;21.70;4.00;;;9.70;99.90;;;;;;5047894;28;20064;-73
2024/01/24 05:08:29;;;;;;;25.27;4.60;;;9.60;99.90;;;;;;5065617;28;20067;-72
2024/01/24 05:10:55;;;;;;;21.55;3.97;;;9.60;99.90;;;;;;5053706;28;20064;-72
2024/01/24 05:13:21;;;;;;;13.63;3.42;;;9.60;99.90;;;;;;5053962;28;20047;-71
2024/01/24 05:15:46;;;;;;;26.35;3.90;;;9.50;99.90;;;;;;5046235;28;20036;-72
2024/01/24 05:18:12;;;;;;;16.75;2.80;;;9.50;99.90;;;;;;5065412;28;20047;-72
2024/01/24 05:20:37;;;;;;;15.18;2.35;;;9.60;99.90;;;;;;5045691;28;20056;-72
2024/01/24 05:23:04;;;;;;;20.80;2.83;;;9.70;99.90;;;;;;5064326;28;20036;-73
2024/01/24 05:25:30;;;;;;;12.48;2.85;;;9.80;99.90;;;;;;5053833;28;20067;-72
2024/01/24 05:27:56;;;;;;;17.42;2.63;;;9.80;99.90;;;;;;5059579;28;20040;-73
2024/01/24 05:30:22;;;;;;;10.07;1.45;;;9.90;99.90;;;;;;5052507;28;20119;-73
2024/01/24 05:32:47;;;;;;;15.80;3.58;;;9.90;99.90;;;;;;5062258;28;20160;-72
2024/01/24 05:35:13;;;;;;;22.58;3.40;;;9.80;99.90;;;;;;5062456;28;20038;-72
2024/01/24 05:37:39;;;;;;;13.18;2.25;;;9.80;99.90;;;;;;5054748;28;20037;-72
2024/01/24 05:40:06;;;;;;;18.67;4.10;;;9.70;99.90;;;;;;5063992;28;20040;-72
2024/01/24 05:42:33;;;;;;;13.77;2.42;;;9.80;99.90;;;;;;5053214;28;20323;-73
2024/01/24 05:44:59;;;;;;;23.60;2.90;;;9.80;99.90;;;;;;5066318;28;20197;-73
2024/01/24 05:47:25;;;;;;;17.52;2.78;;;9.70;99.90;;;;;;5048535;28;20648;-72
2024/01/24 05:49:50;;;;;;;18.60;2.30;;;9.70;99.90;;;;;;5064550;28;20063;-72
2024/01/24 05:52:16;;;;;;;8.52;1.75;;;9.60;99.90;;;;;;5054907;28;20031;-73
2024/01/24 05:54:41;;;;;;;23.00;3.10;;;9.60;99.90;;;;;;5056801;28;20032;-72
2024/01/24 05:57:07;;;;;;;14.82;2.33;;;9.60;99.90;;;;;;5054330;28;20032;-73
2024/01/24 05:59:33;;;;;;;8.73;1.58;;;9.50;99.90;;;;;;5059612;28;20152;-73
2024/01/24 06:01:58;;;;;;;17.60;2.83;;;9.50;99.90;;;;;;5047675;28;20025;-72
2024/01/24 06:04:24;;;;;;;13.93;2.72;;;9.40;99.90;;;;;;5061741;28;20036;-71
2024/01/24 06:06:49;;;;;;;18.02;2.45;;;9.50;99.90;;;;;;5048171;28;20150;-72
2024/01/24 06:09:18;;;;;;;11.50;1.85;;;9.50;99.90;;;;;;5065044;28;20101;-72
2024/01/24 06:11:45;;;;;;;12.20;1.95;;;9.50;99.90;;;;;;5050564;28;20067;-73
2024/01/24 06:14:11;;;;;;;12.38;2.47;;;9.50;99.90;;;;;;5061160;28;20032;-73
2024/01/24 06:16:37;;;;;;;13.93;2.42;;;9.50;99.90;;;;;;5064238;28;20032;-71
2024/01/24 06:19:02;;;;;;;19.05;3.05;;;9.50;99.90;;;;;;5036617;28;20104;-72
2024/01/24 06:21:28;;;;;;;28.85;3.67;;;9.50;99.90;;;;;;5056874;28;20029;-72
2024/01/24 06:23:54;;;;;;;30.45;2.38;;;9.40;99.90;;;;;;5049118;28;20040;-73
2024/01/24 06:26:19;;;;;;;15.98;2.65;;;9.30;99.90;;;;;;5063716;28;20029;-72
2024/01/24 06:28:46;;;;;;;12.07;1.02;;;9.30;99.90;;;;;;5037791;28;20099;-72
2024/01/24 06:31:12;;;;;;;16.30;2.65;;;9.30;99.90;;;;;;5054627;28;20020;-71
2024/01/24 06:33:39;;;;;;;14.50;3.42;;;;;;;;;;5046301;28;20036;-73
2024/01/24 06:36:08;;;;;;;19.65;2.90;;;;;;;;;;5058432;28;20040;-72
2024/01/24 06:38:34;;;;;;;7.15;2.15;;;;;;;;;;5050192;28;20364;-72
2024/01/24 06:41:00;;;;;;;15.70;3.13;;;;;;;;;;5058553;28;20522;-72
2024/01/24 06:44:09;;;;;;;16.70;2.15;;;;;;;;;;5052181;28;20036;-72
2024/01/24 06:47:26;;;;;;;17.33;3.05;;;;;;;;;;5064556;28;20048;-73
2024/01/24 06:50:35;;;;;;;18.65;3.55;;;;;;;;;;5048332;28;20039;-73
2024/01/24 06:53:43;;;;;;;22.88;3.28;;;;;;;;;;5055033;28;20027;-73
2024/01/24 06:56:51;;;;;;;11.35;2.58;;;;;;;;;;5062389;28;20094;-73
2024/01/24 06:59:59;;;;;;;23.80;3.22;;;;;;;;;;5050698;28;20040;-73
2024/01/24 07:02:24;;;;;;;20.20;2.33;;;8.70;99.90;;;;;;5051016;28;20340;-73
2024/01/24 07:04:50;;;;;;;17.88;3.17;;;8.70;99.90;;;;;;5051405;28;20383;-73
2024/01/24 07:07:16;;;;;;;17.42;2.50;;;8.60;99.90;;;;;;5057147;28;20032;-73
2024/01/24 07:09:41;;;;;;;16.27;2.28;;;8.60;99.90;;;;;;5048424;28;20232;-72
2024/01/24 07:12:07;;;;;;;16.40;2.92;;;8.60;99.90;;;;;;5056554;28;20245;-73
2024/01/24 07:14:33;;;;;;;21.42;2.90;;;8.60;99.90;;;;;;5039772;28;20021;-72
2024/01/24 07:17:00;;;;;;;14.00;2.67;;;8.60;99.90;;;;;;5065021;28;20032;-72
2024/01/24 07:19:26;;;;;;;22.48;4.00;;;8.50;99.90;;;;;;5049021;28;20499;-72
2024/01/24 07:21:51;;;;;;;23.83;2.83;;;8.50;99.90;;;;;;5054929;28;20083;-71
2024/01/24 07:24:17;;;;;;;24.83;4.57;;;8.50;99.90;;;;;;5048837;28;20036;-72
2024/01/24 07:26:43;;;;;;;16.02;2.47;;;8.50;99.90;;;;;;5062977;28;20120;-72
2024/01/24 07:29:10;;;;;;;11.10;1.50;;;8.50;99.90;;;;;;5046953;28;20630;-72
2024/01/24 07:31:37;;;;;;;13.35;2.25;;;8.50;99.90;;;;;;5058109;28;20116;-72
2024/01/24 07:34:03;;;;;;;13.20;2.63;;;8.50;99.90;;;;;;5060672;28;20481;-72
2024/01/24 07:36:29;;;;;;;16.83;2.03;;;8.60;99.90;;;;;;5045731;28;20055;-72
2024/01/24 07:38:54;;;;;;;15.60;3.25;;;8.70;99.90;;;;;;5060380;28;20028;-72
2024/01/24 07:41:20;;;;;;;21.75;2.67;;;8.70;99.90;;;;;;5041995;28;20040;-72
2024/01/24 07:43:46;;;;;;;14.52;3.03;;;8.80;99.90;;;;;;5056570;28;20089;-72
2024/01/24 07:46:11;;;;;;;14.70;4.13;;;8.80;99.90;;;;;;5046137;28;20276;-72
2024/01/24 07:48:37;;;;;;;17.45;3.35;;;8.70;99.90;;;;;;5049044;28;20312;-72
2024/01/24 07:51:04;;;;;;;25.70;3.35;;;8.80;99.90;;;;;;5040818;28;20059;-72
2024/01/24 07:53:30;;;;;;;12.32;2.83;;;8.80;99.90;;;;;;5051777;28;20516;-72
2024/01/24 07:55:56;;;;;;;16.27;2.63;;;8.70;99.90;;;;;;5038702;28;20032;-72
2024/01/24 07:58:25;;;;;;;17.50;2.30;;;8.60;99.90;;;;;;5055480;28;20066;-71
2024/01/24 08:00:50;;;;;;;9.15;2.30;;;8.60;99.90;;;;;;5037344;28;20032;-72
2024/01/24 08:03:16;;;;;;;13.32;2.90;;;8.50;99.90;;;;;;5050868;28;20164;-72
2024/01/24 08:05:43;;;;;;;8.90;1.77;;;8.50;99.90;;;;;;5040585;28;20694;-73
2024/01/24 08:08:08;;;;;;;10.57;2.40;;;8.50;99.90;;;;;;5037920;28;20534;-72
2024/01/24 08:10:34;;;;;;;15.07;2.42;;;8.40;99.90;;;;;;5040399;28;20035;-74
2024/01/24 08:13:00;;;;;;;6.50;1.60;;;8.40;99.90;;;;;;5051515;28;20036;-72
2024/01/24 08:15:26;;;;;;;18.73;2.88;;;8.30;99.90;;;;;;5046591;28;20036;-73
2024/01/24 08:17:51;;;;;;;12.07;2.33;;;8.30;99.90;;;;;;5042978;28;20452;-74
2024/01/24 08:20:19;;;;;;;13.25;2.88;;;8.40;99.90;;;;;;5053493;28;20077;-72
2024/01/24 08:22:45;;;;;;;20.40;4.60;;;8.40;99.90;;;;;;5034725;28;20270;-72
2024/01/24 08:25:11;;;;;;;6.40;1.55;;;8.40;99.90;;;;;;5049034;28;20043;-73
2024/01/24 08:27:36;;;;;;;5.45;2.22;;;8.40;99.90;;;;;;5038958;28;20056;-73
2024/01/24 08:30:03;;;;;;;12.77;2.00;;;8.40;99.90;;;;;;5054474;28;20029;-73
2024/01/24 08:32:28;;;;;;;17.25;1.35;;;8.30;99.90;;;;;;5042184;28;20032;-74
2024/01/24 08:34:54;;;;;;;15.55;2.65;;;8.30;99.90;;;;;;5047194;28;20047;-73
2024/01/24 08:37:20;;;;;;;7.03;1.63;;;8.30;99.90;;;;;;5039506;28;20036;-72
2024/01/24 08:39:46;;;;;;;18.70;2.72;;;8.40;99.90;;;;;;5051612;28;20043;-70
2024/01/24 08:42:11;;;;;;;19.70;2.72;;;8.40;99.90;;;;;;5038173;28;20040;-71
2024/01/24 08:44:37;;;;;;;23.15;2.83;;;8.50;99.90;;;;;;5054069;28;20040;-71
2024/01/24 08:47:03;;;;;;;15.73;2.22;;;8.60;99.90;;;;;;5041837;28;20499;-70
2024/01/24 08:49:29;;;;;;;24.50;4.45;;;8.70;99.90;;;;;;5049328;28;20033;-71
2024/01/24 08:51:55;;;;;;;19.77;2.78;;;8.80;99.90;;;;;;5044538;28;20699;-70
2024/01/24 08:54:21;;;;;;;25.33;3.17;;;8.80;99.90;;;;;;5052326;28;20058;-72
2024/01/24 08:56:47;;;;;;;21.88;4.22;;;8.90;99.90;;;;;;5056612;28;20081;-71
2024/01/24 08:59:13;;;;;;;19.30;3.05;;;8.90;99.90;;;;;;5045106;28;20037;-71
2024/01/24 09:01:39;;;;;;;20.10;4.22;;;9.00;99.90;;;;;;5058541;28;20655;-72
2024/01/24 09:04:05;;;;;;;9.98;2.25;;;9.00;99.90;;;;;;5049675;28;20130;-71
2024/01/24 09:06:30;;;;;;;22.15;3.28;;;9.00;99.90;;;;;;5063985;28;21661;-72
2024/01/24 09:08:56;;;;;;;23.77;2.60;;;9.20;99.90;;;;;;5051502;28;20148;-73
2024/01/24 09:11:22;;;;;;;11.43;1.83;;;9.20;99.90;;;;;;5064987;28;20723;-71
2024/01/24 09:13:49;;;;;;;11.15;2.55;;;9.30;99.90;;;;;;5049547;28;20028;-72
2024/01/24 09:16:15;;;;;;;12.10;2.88;;;9.30;99.90;;;;;;5053744;28;20123;-74
2024/01/24 09:18:42;;;;;;;26.52;3.33;;;9.40;99.90;;;;;;5046738;28;20867;-73
2024/01/24 09:21:07;;;;;;;22.35;4.03;;;9.50;99.90;;;;;;5059516;28;20054;-72
2024/01/24 09:23:33;;;;;;;15.13;1.80;;;9.50;99.90;;;;;;5047548;28;20832;-71
2024/01/24 09:25:59;;;;;;;8.80;3.03;;;9.50;99.90;;;;;;5059841;28;20040;-70
2024/01/24 09:28:25;;;;;;;19.77;3.70;;;9.60;99.90;;;;;;5043359;28;20037;-73
2024/01/24 09:30:50;;;;;;;20.73;2.65;;;9.60;99.90;;;;;;5055854;28;20039;-72
2024/01/24 09:33:16;;;;;;;29.23;4.15;;;9.60;99.90;;;;;;5056652;28;20032;-72
2024/01/24 09:35:44;;;;;;;24.20;3.22;;;9.70;99.90;;;;;;5028491;28;20036;-73
2024/01/24 09:38:10;;;;;;;27.67;3.30;;;9.70;99.90;;;;;;5061097;28;20123;-72
2024/01/24 09:40:37;;;;;;;9.43;2.85;;;9.80;99.90;;;;;;5047987;28;20054;-72
2024/01/24 09:43:03;;;;;;;22.15;3.10;;;9.80;99.90;;;;;;5057149;28;20123;-71
2024/01/24 09:45:30;;;;;;;13.27;2.80;;;10.00;99.90;;;;;;5049249;28;20414;-73
2024/01/24 09:47:58;;;;;;;19.55;2.38;;;10.10;99.90;;;;;;5057123;28;20055;-73
2024/01/24 09:50:25;;;;;;;10.32;1.92;;;;;;;;;;5047386;28;20060;-74
2024/01/24 09:52:51;;;;;;;20.05;3.60;;;10.30;99.90;;;;;;5059723;28;20047;-73
2024/01/24 09:55:20;;;;;;;11.25;2.55;;;10.50;99.90;;;;;;5046965;28;20043;-71
2024/01/24 09:57:46;;;;;;;;;;;10.50;99.90;;;;;;5062209;28;20551;-71
2024/01/24 10:00:14;;;;;;;11.55;2.70;;;;;;;;;;5046172;28;19922;-72
2024/01/24 10:02:43;;;;;;;11.38;2.85;;;10.50;99.90;;;;;;5051880;28;20038;-71
2024/01/24 10:05:15;;;;;;;12.55;2.55;;;10.70;99.90;;;;;;5030108;28;20057;-73
2024/01/24 10:07:41;;;;;;;15.68;2.50;;;10.80;99.90;;;;;;5045591;28;20047;-72
2024/01/24 10:10:09;;;;;;;17.08;2.72;;;10.90;99.90;;;;;;5034500;28;20033;-72
2024/01/24 10:12:35;;;;;;;21.98;3.47;;;10.90;99.90;;;;;;5045817;28;20127;-72
2024/01/24 10:15:01;;;;;;;17.08;1.98;;;11.00;99.90;;;;;;5037248;28;20439;-71
2024/01/24 10:17:28;;;;;;;21.23;2.70;;;11.00;99.90;;;;;;5050326;28;20764;-74
2024/01/24 10:19:54;;;;;;;19.60;2.08;;;11.10;99.90;;;;;;5043421;28;20036;-77
2024/01/24 10:22:21;;;;;;;17.33;2.67;;;11.10;99.90;;;;;;5035856;28;20044;-74
2024/01/24 10:24:47;;;;;;;17.15;2.17;;;11.20;99.90;;;;;;5046672;28;20122;-78
2024/01/24 10:27:13;;;;;;;17.75;2.90;;;11.20;99.90;;;;;;5039819;28;20392;-74
2024/01/24 10:29:39;;;;;;;16.95;2.22;;;11.30;99.90;;;;;;5044691;28;20202;-72
2024/01/24 10:32:09;;;;;;;12.82;2.22;;;11.40;99.90;;;;;;5038362;28;20059;-73
2024/01/24 10:34:36;;;;;;;16.83;1.95;;;11.30;99.90;;;;;;5044222;28;20029;-73
2024/01/24 10:37:02;;;;;;;6.78;1.67;;;11.30;99.90;;;;;;5035466;28;20028;-73
2024/01/24 10:39:30;;;;;;;15.70;3.30;;;11.20;99.90;;;;;;5045295;28;20047;-74
2024/01/24 10:42:01;;;;;;;9.35;2.90;;;11.20;99.90;;;;;;5036320;28;20087;-72
2024/01/24 10:44:32;;;;;;;18.77;2.15;;;11.30;99.90;;;;;;5046873;28;20145;-75
2024/01/24 10:46:57;;;;;;;15.18;2.42;;;11.30;99.90;;;;;;5043243;28;20151;-72
2024/01/24 10:49:24;;;;;;;14.73;2.47;;;11.30;99.90;;;;;;5051086;28;20032;-73
2024/01/24 10:51:50;;;;;;;29.00;3.35;;;11.30;99.90;;;;;;5040373;28;20759;-73
2024/01/24 10:54:17;;;;;;;21.42;2.90;;;11.20;99.90;;;;;;5045584;28;20052;-72
2024/01/24 10:56:47;;;;;;;19.10;2.97;;;11.30;99.90;;;;;;5035215;28;20042;-72
2024/01/24 10:59:14;;;;;;;15.93;2.58;;;11.40;99.90;;;;;;5049777;28;20032;-72
2024/01/24 11:01:39;;;;;;;11.32;2.42;;;11.60;99.90;;;;;;5035281;28;20029;-73
2024/01/24 11:04:08;;;;;;;15.88;1.88;;;11.70;99.90;;;;;;5047063;28;20056;-72
2024/01/24 11:06:38;;;;;;;21.88;2.85;;;11.70;99.90;;;;;;5027452;28;20127;-73
2024/01/24 11:09:24;;;;;;;14.50;2.60;;;11.70;99.90;;;;;;5040408;28;20453;-72
2024/01/24 11:11:54;;;;;;;26.05;3.35;;;11.70;99.90;;;;;;5048201;28;20031;-75
2024/01/24 11:14:36;;;;;;;17.00;2.20;;;11.70;99.90;;;;;;5059997;28;20039;-73
2024/01/24 11:17:46;;;;;;;15.65;3.45;;;11.70;99.90;;;;;;5058698;28;20032;-74
2024/01/24 11:20:12;;;;;;;16.63;2.58;;;11.80;99.90;;;;;;5069034;28;20035;-72
2024/01/24 11:22:38;;;;;;;15.60;2.20;;;12.00;99.90;;;;;;5061917;28;20123;-72
2024/01/24 11:25:04;;;;;;;7.80;1.67;;;12.10;99.90;;;;;;5082120;28;20055;-74
2024/01/24 11:27:33;;;;;;;16.70;2.92;;;12.20;99.90;;;;;;5056030;28;20047;-74
2024/01/24 11:30:00;;;;;;;13.65;2.08;;;12.20;99.90;;;;;;5063166;28;20404;-73
2024/01/24 11:32:52;;;;;;;13.15;2.72;;;12.20;99.90;;;;;;5053534;28;20032;-72
2024/01/24 11:35:37;;;;;;;23.10;2.85;;;12.10;99.90;;;;;;5062017;28;22012;-72
2024/01/24 11:38:27;;;;;;;27.40;3.10;;;12.00;99.90;;;;;;5049806;28;20078;-70
2024/01/24 11:40:57;;;;;;;16.67;2.85;;;11.60;99.90;;;;;;5060252;28;20051;-71
2024/01/24 11:43:27;;;;;;;14.52;2.08;;;11.50;99.90;;;;;;5046073;28;21473;-73
2024/01/24 11:45:55;;;;;;;25.50;3.08;;;11.50;99.90;;;;;;5069078;28;20028;-74
2024/01/24 11:48:22;;;;;;;14.85;2.58;;;11.70;99.90;;;;;;5054322;28;20040;-74
2024/01/24 11:51:07;;;;;;;12.15;2.40;;;11.70;99.90;;;;;;5066664;28;20059;-75
2024/01/24 11:53:34;;;;;;;17.10;3.20;;;12.30;99.90;;;;;;5056753;28;20028;-71
2024/01/24 11:56:02;;;;;;;12.30;2.67;;;13.00;99.90;;;;;;5056023;28;20147;-72
2024/01/24 11:58:29;;;;;;;16.20;3.15;;;13.10;99.90;;;;;;5049990;28;20160;-73
2024/01/24 12:01:10;;;;;;;17.88;2.67;;;13.00;99.90;;;;;;5064108;28;20464;-73
2024/01/24 12:03:37;;;;;;;21.17;2.45;;;12.70;99.90;;;;;;5052937;28;20036;-74
2024/01/24 12:06:04;;;;;;;24.02;2.58;;;12.50;99.90;;;;;;5062203;28;20482;-75
2024/01/24 12:08:30;;;;;;;23.00;2.75;;;12.40;99.90;;;;;;5054889;28;20036;-71
2024/01/24 12:10:56;;;;;;;31.98;3.17;;;12.20;99.90;;;;;;5057827;28;20039;-73
2024/01/24 12:13:24;;;;;;;19.67;2.78;;;12.10;99.90;;;;;;5062116;28;20040;-74
2024/01/24 12:15:53;;;;;;;26.50;3.08;;;12.10;99.90;;;;;;5050247;28;20028;-73
2024/01/24 12:18:18;;;;;;;12.38;2.75;;;12.10;99.90;;;;;;5061818;28;20614;-74
2024/01/24 12:20:46;;;;;;;13.52;2.40;;;12.20;99.90;;;;;;5051794;28;20041;-72
2024/01/24 12:23:11;;;;;;;22.45;2.22;;;12.30;99.90;;;;;;5059721;28;20032;-74
2024/01/24 12:25:37;;;;;;;27.77;2.75;;;12.60;99.90;;;;;;5054714;28;20033;-74
2024/01/24 12:28:04;;;;;;;18.38;2.83;;;12.70;99.90;;;;;;5059498;28;20028;-73
2024/01/24 12:30:32;;;;;;;19.40;2.28;;;12.70;99.90;;;;;;5051096;28;20032;-73
2024/01/24 12:32:59;;;;;;;22.53;3.03;;;12.70;99.90;;;;;;5055966;28;20032;-72
2024/01/24 12:35:25;;;;;;;20.40;2.25;;;12.80;99.90;;;;;;5050630;28;20647;-73
2024/01/24 12:37:51;;;;;;;28.10;2.88;;;12.90;99.90;;;;;;5058390;28;20037;-73
2024/01/24 12:40:21;;;;;;;21.52;2.92;;;12.90;99.90;;;;;;5054455;28;20777;-73
2024/01/24 12:42:46;;;;;;;22.80;2.70;;;12.50;99.90;;;;;;5058896;28;20060;-76
2024/01/24 12:45:13;;;;;;;21.20;2.20;;;12.30;99.90;;;;;;5042084;28;20176;-75
2024/01/24 12:47:41;;;;;;;13.55;2.13;;;12.30;99.90;;;;;;5049800;28;20899;-71
2024/01/24 12:50:09;;;;;;;16.00;2.78;;;12.10;99.90;;;;;;5035751;28;20085;-70